createdAt,value
2022-08-14T00:01:57.036Z,10.00
2022-08-14T00:04:32.244Z,10.23
2022-08-14T00:07:10.084Z,10.20
2022-08-14T00:09:56.009Z,10.20
2022-08-14T00:12:34.127Z,10.43
2022-08-14T00:15:15.025Z,9.75
2022-08-14T00:17:48.189Z,9.85
2022-08-14T00:20:30.348Z,9.68
2022-08-14T00:22:58.600Z,10.82
2022-08-14T00:25:41.863Z,9.95
2022-08-14T00:28:11.006Z,10.07
2022-08-14T00:30:42.927Z,9.85
2022-08-14T00:33:16.118Z,9.80
2022-08-14T00:36:35.797Z,9.80
2022-08-14T00:38:31.956Z,9.80
2022-08-14T00:40:59.236Z,9.82
2022-08-14T00:43:26.021Z,10.30
2022-08-14T00:46:08.928Z,10.35
2022-08-14T00:48:55.655Z,9.38
2022-08-14T00:51:25.117Z,9.82
2022-08-14T00:54:03.116Z,10.27
2022-08-14T00:56:31.605Z,9.63
2022-08-14T00:58:59.811Z,9.90
2022-08-14T01:01:26.646Z,9.90
2022-08-14T01:03:54.163Z,10.18
2022-08-14T01:06:21.456Z,10.52
2022-08-14T01:08:51.318Z,9.80
2022-08-14T01:11:25.525Z,10.27
2022-08-14T01:14:01.200Z,10.23
2022-08-14T01:16:31.091Z,10.20
2022-08-14T01:19:19.649Z,10.15
2022-08-14T01:21:53.013Z,10.10
2022-08-14T01:24:22.870Z,10.10
2022-08-14T01:26:55.713Z,10.18
2022-08-14T01:29:36.423Z,9.60
2022-08-14T01:32:10.548Z,10.00
2022-08-14T01:35:17.750Z,9.98
2022-08-14T01:37:24.736Z,10.10
2022-08-14T01:39:54.429Z,10.10
2022-08-14T01:42:31.465Z,10.15
2022-08-14T01:44:59.246Z,10.07
2022-08-14T01:47:27.315Z,10.18
2022-08-14T01:50:01.877Z,9.98
2022-08-14T01:52:59.277Z,9.73
2022-08-14T01:55:23.434Z,10.70
2022-08-14T01:58:02.258Z,10.07
2022-08-14T02:00:39.267Z,9.32
2022-08-14T02:03:07.172Z,9.77
2022-08-14T02:05:38.447Z,9.60
2022-08-14T02:08:09.126Z,9.98
2022-08-14T02:10:46.434Z,10.50
2022-08-14T02:13:16.162Z,10.98
2022-08-14T02:15:44.066Z,10.10
2022-08-14T02:18:11.890Z,10.00
2022-08-14T02:20:42.331Z,10.10
2022-08-14T02:23:09.342Z,9.70
2022-08-14T02:25:37.015Z,9.73
2022-08-14T02:28:22.754Z,9.88
2022-08-14T02:30:53.230Z,9.40
2022-08-14T02:33:22.635Z,9.70
2022-08-14T02:35:53.485Z,10.10
2022-08-14T02:38:30.618Z,9.90
2022-08-14T02:41:01.220Z,9.90
2022-08-14T02:43:36.468Z,10.15
2022-08-14T02:46:05.892Z,9.93
2022-08-14T02:49:04.241Z,9.70
2022-08-14T02:51:23.640Z,9.97
2022-08-14T02:53:58.408Z,9.87
2022-08-14T02:56:30.711Z,10.07
2022-08-14T02:59:14.983Z,9.93
2022-08-14T03:01:43.497Z,9.33
2022-08-14T03:04:20.189Z,10.17
2022-08-14T03:07:06.480Z,10.27
2022-08-14T03:09:42.127Z,9.50
2022-08-14T03:12:40.697Z,9.67
2022-08-14T03:15:09.136Z,9.80
2022-08-14T03:17:58.236Z,9.85
2022-08-14T03:20:28.944Z,9.67
2022-08-14T03:23:03.165Z,9.43
2022-08-14T03:25:33.384Z,10.27
2022-08-14T03:28:04.653Z,10.20
2022-08-14T03:30:39.084Z,9.57
2022-08-14T03:33:10.405Z,10.00
2022-08-14T03:36:07.603Z,10.00
2022-08-14T03:39:15.720Z,9.87
2022-08-14T03:41:16.709Z,9.53
2022-08-14T03:43:45.490Z,9.63
2022-08-14T03:46:53.108Z,9.30
2022-08-14T03:49:04.276Z,9.57
2022-08-14T03:51:35.372Z,9.27
2022-08-14T03:54:06.083Z,9.83
2022-08-14T03:56:37.167Z,9.80
2022-08-14T03:59:17.960Z,9.83
2022-08-14T04:01:57.799Z,9.87
2022-08-14T04:04:28.356Z,10.07
2022-08-14T04:06:58.816Z,10.57
2022-08-14T04:09:27.227Z,9.40
2022-08-14T04:11:54.482Z,9.33
2022-08-14T04:14:23.505Z,9.40
2022-08-14T04:16:50.748Z,9.23
2022-08-14T04:19:19.347Z,8.87
2022-08-14T04:22:02.665Z,9.07
2022-08-14T04:24:38.957Z,8.90
2022-08-14T04:27:13.316Z,9.37
2022-08-14T04:29:45.335Z,9.43
2022-08-14T04:33:02.480Z,9.40
2022-08-14T04:35:07.172Z,9.60
2022-08-14T04:37:53.704Z,9.63
2022-08-14T04:40:40.490Z,9.57
2022-08-14T04:43:26.583Z,9.90
2022-08-14T04:46:54.791Z,9.55
2022-08-14T04:49:00.065Z,9.10
2022-08-14T04:51:27.927Z,9.47
2022-08-14T04:53:56.800Z,9.90
2022-08-14T04:56:30.750Z,9.75
2022-08-14T04:59:10.136Z,10.27
2022-08-14T05:01:40.432Z,10.30
2022-08-14T05:04:08.753Z,10.35
2022-08-14T05:06:42.766Z,9.65
2022-08-14T05:09:14.143Z,9.97
2022-08-14T05:11:42.059Z,9.98
2022-08-14T05:14:33.170Z,9.88
2022-08-14T05:16:59.274Z,9.77
2022-08-14T05:19:29.612Z,10.07
2022-08-14T05:22:15.814Z,10.18
2022-08-14T05:24:45.210Z,9.85
2022-08-14T05:27:15.507Z,10.30
2022-08-14T05:29:44.851Z,10.05
2022-08-14T05:32:13.502Z,9.77
2022-08-14T05:34:41.925Z,9.75
2022-08-14T05:37:15.371Z,9.95
2022-08-14T05:39:42.860Z,10.68
2022-08-14T05:42:21.401Z,9.75
2022-08-14T05:44:49.493Z,10.10
2022-08-14T05:47:20.968Z,10.02
2022-08-14T05:49:48.304Z,10.20
2022-08-14T05:52:18.147Z,10.32
2022-08-14T05:54:45.100Z,10.80
2022-08-14T05:57:12.675Z,10.02
2022-08-14T05:59:40.154Z,10.43
2022-08-14T06:02:11.382Z,10.73
2022-08-14T06:04:39.364Z,10.90
2022-08-14T06:07:06.784Z,11.45
2022-08-14T06:09:35.761Z,11.00
2022-08-14T06:12:08.889Z,11.10
2022-08-14T06:14:36.660Z,10.85
2022-08-14T06:17:04.406Z,10.68
2022-08-14T06:19:31.336Z,11.60
2022-08-14T06:21:58.995Z,11.38
2022-08-14T06:24:27.143Z,11.32
2022-08-14T06:26:56.907Z,11.60
2022-08-14T06:29:33.572Z,11.30
2022-08-14T06:32:38.664Z,11.32
2022-08-14T06:35:04.018Z,11.45
2022-08-14T06:37:45.345Z,11.18
2022-08-14T06:40:25.802Z,10.80
2022-08-14T06:42:56.776Z,11.10
2022-08-14T06:45:27.441Z,11.68
2022-08-14T06:47:55.576Z,11.20
2022-08-14T06:50:28.716Z,11.30
2022-08-14T06:52:58.594Z,11.65
2022-08-14T06:55:27.838Z,11.50
2022-08-14T06:57:55.321Z,11.93
2022-08-14T07:00:27.211Z,12.02
2022-08-14T07:03:16.377Z,11.90
2022-08-14T07:05:55.342Z,11.90
2022-08-14T07:08:31.212Z,11.75
2022-08-14T07:11:01.139Z,12.65
2022-08-14T07:13:30.433Z,12.13
2022-08-14T07:15:59.025Z,12.70
2022-08-14T07:18:29.748Z,12.43
2022-08-14T07:20:58.717Z,12.63
2022-08-14T07:23:26.454Z,12.13
2022-08-14T07:25:55.139Z,11.95
2022-08-14T07:28:34.777Z,12.23
2022-08-14T07:31:06.240Z,11.70
2022-08-14T07:33:50.642Z,12.27
2022-08-14T07:36:27.340Z,12.43
2022-08-14T07:38:58.557Z,12.10
2022-08-14T07:41:25.348Z,12.75
2022-08-14T07:44:05.616Z,12.93
2022-08-14T07:46:47.031Z,12.40
2022-08-14T07:49:15.330Z,12.32
2022-08-14T07:51:45.094Z,12.38
2022-08-14T07:54:12.357Z,12.75
2022-08-14T07:56:44.409Z,12.32
2022-08-14T07:59:18.143Z,12.23
2022-08-14T08:01:51.283Z,12.88
2022-08-14T08:04:24.289Z,12.38
2022-08-14T08:06:53.123Z,12.68
2022-08-14T08:09:24.324Z,11.68
2022-08-14T08:11:54.574Z,12.63
2022-08-14T08:14:25.222Z,12.80
2022-08-14T08:16:54.688Z,12.55
2022-08-14T08:19:21.462Z,13.02
2022-08-14T08:21:48.260Z,12.30
2022-08-14T08:24:18.684Z,12.20
2022-08-14T08:26:46.942Z,12.68
2022-08-14T08:29:24.966Z,12.38
2022-08-14T08:31:55.770Z,13.00
2022-08-14T08:34:23.561Z,12.50
2022-08-14T08:36:51.051Z,12.27
2022-08-14T08:39:22.252Z,12.27
2022-08-14T08:41:53.187Z,12.55
2022-08-14T08:44:33.098Z,12.15
2022-08-14T08:47:07.905Z,12.45
2022-08-14T08:49:52.940Z,11.23
2022-08-14T08:52:31.394Z,11.82
2022-08-14T08:54:59.689Z,12.50
2022-08-14T08:57:33.559Z,11.25
2022-08-14T09:00:02.154Z,10.38
2022-08-14T09:02:29.429Z,9.77
2022-08-14T09:05:02.552Z,9.95
2022-08-14T09:07:30.527Z,9.95
2022-08-14T09:10:00.030Z,9.52
2022-08-14T09:12:33.448Z,9.60
2022-08-14T09:15:11.964Z,9.75
2022-08-14T09:17:41.440Z,9.65
2022-08-14T09:20:11.300Z,9.80
2022-08-14T09:22:47.726Z,9.45
2022-08-14T09:25:16.454Z,9.70
2022-08-14T09:27:43.592Z,9.60
2022-08-14T09:30:30.573Z,9.65
2022-08-14T09:33:09.174Z,9.35
2022-08-14T09:35:57.941Z,10.32
2022-08-14T09:38:40.598Z,9.65
2022-08-14T09:41:26.150Z,10.05
2022-08-14T09:44:33.708Z,9.60
2022-08-14T09:47:00.973Z,9.57
2022-08-14T09:49:40.032Z,9.63
2022-08-14T09:52:32.721Z,9.50
2022-08-14T09:54:57.532Z,9.43
2022-08-14T09:57:29.043Z,9.20
2022-08-14T09:59:56.241Z,9.80
2022-08-14T10:02:29.888Z,9.45
2022-08-14T10:05:11.180Z,9.30
2022-08-14T10:07:53.491Z,9.70
2022-08-14T10:10:34.496Z,9.52
2022-08-14T10:13:07.469Z,9.55
2022-08-14T10:15:44.462Z,9.50
2022-08-14T10:18:18.229Z,9.85
2022-08-14T10:21:01.549Z,9.63
2022-08-14T10:23:39.190Z,9.80
2022-08-14T10:26:07.938Z,10.07
2022-08-14T10:29:18.958Z,9.90
2022-08-14T10:31:44.639Z,9.52
2022-08-14T10:34:18.606Z,9.20
2022-08-14T10:37:02.206Z,9.27
2022-08-14T10:39:30.880Z,9.77
2022-08-14T10:42:16.502Z,9.57
2022-08-14T10:44:49.213Z,9.43
2022-08-14T10:47:40.917Z,9.82
2022-08-14T10:50:07.778Z,9.73
2022-08-14T10:52:42.177Z,9.57
2022-08-14T10:55:14.212Z,9.73
2022-08-14T10:58:10.594Z,8.93
2022-08-14T11:00:39.248Z,9.27
2022-08-14T11:03:19.915Z,9.65
2022-08-14T11:06:15.266Z,10.02
2022-08-14T11:08:42.536Z,9.38
2022-08-14T11:11:13.235Z,9.52
2022-08-14T11:13:44.078Z,9.13
2022-08-14T11:16:11.125Z,9.02
2022-08-14T11:18:39.802Z,9.15
2022-08-14T11:21:08.412Z,9.10
2022-08-14T11:23:44.139Z,9.30
2022-08-14T11:26:13.503Z,9.50
2022-08-14T11:28:47.974Z,9.10
2022-08-14T11:31:19.905Z,9.40
2022-08-14T11:34:00.218Z,8.95
2022-08-14T11:36:57.072Z,9.38
2022-08-14T11:39:33.532Z,9.13
2022-08-14T11:42:07.723Z,9.07
2022-08-14T11:45:00.260Z,8.68
2022-08-14T11:47:35.111Z,8.90
2022-08-14T11:50:34.095Z,8.77
2022-08-14T11:53:07.133Z,8.57
2022-08-14T11:55:38.821Z,9.15
2022-08-14T11:58:11.594Z,8.70
2022-08-14T12:01:02.611Z,9.20
2022-08-14T12:03:57.040Z,9.00
2022-08-14T12:06:29.248Z,9.20
2022-08-14T12:09:08.920Z,9.00
2022-08-14T12:11:47.761Z,9.60
2022-08-14T12:14:29.880Z,9.27
2022-08-14T12:17:12.504Z,8.95
2022-08-14T12:19:58.890Z,10.05
2022-08-14T12:22:44.338Z,9.27
2022-08-14T12:25:24.999Z,9.35
2022-08-14T12:28:01.212Z,9.00
2022-08-14T12:30:43.461Z,9.10
2022-08-14T12:33:33.488Z,9.10
2022-08-14T12:36:04.116Z,8.90
2022-08-14T12:38:43.690Z,8.60
2022-08-14T12:41:21.252Z,9.60
2022-08-14T12:43:59.770Z,8.90
2022-08-14T12:46:35.766Z,8.57
2022-08-14T12:49:09.514Z,8.90
2022-08-14T12:51:38.148Z,9.20
2022-08-14T12:54:27.248Z,9.00
2022-08-14T12:57:35.599Z,9.18
2022-08-14T13:00:23.970Z,8.52
2022-08-14T13:02:54.881Z,9.27
2022-08-14T13:05:27.458Z,8.60
2022-08-14T13:07:55.263Z,8.85
2022-08-14T13:10:47.476Z,8.98
2022-08-14T13:13:15.902Z,8.88
2022-08-14T13:15:56.121Z,9.43
2022-08-14T13:18:27.709Z,9.63
2022-08-14T13:20:59.795Z,9.23
2022-08-14T13:23:32.654Z,9.23
2022-08-14T13:26:00.585Z,9.20
2022-08-14T13:28:33.526Z,9.40
2022-08-14T13:31:11.005Z,8.68
2022-08-14T13:33:40.923Z,9.35
2022-08-14T13:36:09.583Z,9.07
2022-08-14T13:38:37.020Z,9.18
2022-08-14T13:41:03.994Z,9.45
2022-08-14T13:43:36.819Z,9.30
2022-08-14T13:46:26.425Z,9.77
2022-08-14T13:48:54.791Z,9.00
2022-08-14T13:51:26.113Z,9.10
2022-08-14T13:54:10.216Z,9.27
2022-08-14T13:56:40.426Z,9.10
2022-08-14T13:59:08.596Z,8.77
2022-08-14T14:01:42.860Z,9.20
2022-08-14T14:04:19.580Z,9.57
2022-08-14T14:06:49.574Z,9.30
2022-08-14T14:09:37.421Z,9.27
2022-08-14T14:12:37.582Z,9.07
2022-08-14T14:15:13.708Z,9.70
2022-08-14T14:17:44.032Z,9.57
2022-08-14T14:20:34.051Z,9.68
2022-08-14T14:23:03.498Z,9.52
2022-08-14T14:25:47.973Z,9.30
2022-08-14T14:28:24.322Z,9.45
2022-08-14T14:30:56.974Z,9.60
2022-08-14T14:33:45.249Z,9.70
2022-08-14T14:36:14.727Z,9.82
2022-08-14T14:38:44.184Z,9.80
2022-08-14T14:41:15.252Z,9.93
2022-08-14T14:43:47.439Z,9.55
2022-08-14T14:46:19.671Z,9.65
2022-08-14T14:48:54.012Z,9.77
2022-08-14T14:51:22.078Z,9.23
2022-08-14T14:53:49.004Z,9.90
2022-08-14T14:56:50.541Z,9.68
2022-08-14T14:59:03.326Z,9.70
2022-08-14T15:01:36.428Z,9.82
2022-08-14T15:04:07.993Z,10.00
2022-08-14T15:06:47.705Z,10.48
2022-08-14T15:09:17.826Z,9.35
2022-08-14T15:11:45.768Z,9.55
2022-08-14T15:14:56.947Z,9.07
2022-08-14T15:17:02.007Z,9.25
2022-08-14T15:19:28.923Z,9.75
2022-08-14T15:21:56.949Z,10.00
2022-08-14T15:24:24.414Z,9.25
2022-08-14T15:26:57.049Z,9.60
2022-08-14T15:29:26.098Z,9.05
2022-08-14T15:31:53.499Z,9.70
2022-08-14T15:34:43.570Z,9.48
2022-08-14T15:37:10.795Z,9.45
2022-08-14T15:39:41.147Z,10.02
2022-08-14T15:42:15.850Z,9.65
2022-08-14T15:44:57.923Z,9.60
2022-08-14T15:47:30.625Z,9.90
2022-08-14T15:50:00.549Z,9.60
2022-08-14T15:52:34.856Z,9.60
2022-08-14T15:55:08.685Z,9.48
2022-08-14T15:57:36.663Z,9.20
2022-08-14T16:00:43.370Z,9.45
2022-08-14T16:03:15.646Z,9.70
2022-08-14T16:05:43.588Z,9.63
2022-08-14T16:08:26.955Z,9.40
2022-08-14T16:10:57.659Z,9.50
2022-08-14T16:13:39.724Z,9.43
2022-08-14T16:16:47.628Z,9.63
2022-08-14T16:19:10.281Z,9.82
2022-08-14T16:21:40.145Z,9.30
2022-08-14T16:24:27.014Z,9.38
2022-08-14T16:29:44.758Z,9.45
2022-08-14T16:32:32.545Z,9.05
2022-08-14T16:35:01.188Z,9.45
2022-08-14T16:37:30.891Z,9.15
2022-08-14T16:40:02.207Z,9.05
2022-08-14T16:40:25.589Z,9.15
2022-08-14T16:42:39.163Z,9.98
2022-08-14T16:45:26.437Z,9.70
2022-08-14T16:47:54.890Z,9.30
2022-08-14T16:50:40.101Z,10.20
2022-08-14T16:53:10.489Z,9.88
2022-08-14T16:55:53.891Z,9.90
2022-08-14T16:58:30.033Z,10.15
2022-08-14T17:01:22.662Z,10.05
2022-08-14T17:04:03.429Z,9.60
2022-08-14T17:06:46.276Z,10.52
2022-08-14T17:09:28.498Z,9.80
2022-08-14T17:12:33.499Z,10.10
2022-08-14T17:15:01.694Z,9.70
2022-08-14T17:17:42.671Z,9.60
2022-08-14T17:20:39.811Z,9.40
2022-08-14T17:23:10.753Z,9.57
2022-08-14T17:25:39.083Z,10.00
2022-08-14T17:28:49.996Z,9.43
2022-08-14T17:31:05.799Z,10.07
2022-08-14T17:33:44.412Z,10.00
2022-08-14T17:36:24.275Z,9.57
2022-08-14T17:39:13.360Z,9.45
2022-08-14T17:42:01.682Z,10.52
2022-08-14T17:44:45.549Z,9.15
2022-08-14T17:47:18.157Z,9.63
2022-08-14T17:49:51.893Z,8.82
2022-08-14T17:52:36.513Z,9.02
2022-08-14T17:56:00.198Z,9.35
2022-08-14T17:57:58.710Z,8.80
2022-08-14T18:00:25.712Z,9.40
2022-08-14T18:02:54.305Z,9.57
2022-08-14T18:05:23.739Z,9.30
2022-08-14T18:08:33.110Z,9.95
2022-08-14T18:10:57.911Z,9.85
2022-08-14T18:13:51.594Z,10.23
2022-08-14T18:16:20.172Z,9.80
2022-08-14T18:18:50.175Z,9.60
2022-08-14T18:21:40.827Z,10.07
2022-08-14T18:24:28.085Z,10.00
2022-08-14T18:27:01.910Z,9.23
2022-08-14T18:29:32.086Z,9.80
2022-08-14T18:31:59.373Z,10.20
2022-08-14T18:34:50.715Z,11.60
2022-08-14T18:37:21.167Z,9.88
2022-08-14T18:40:03.366Z,9.13
2022-08-14T18:42:34.626Z,9.35
2022-08-14T18:45:02.096Z,9.18
2022-08-14T18:48:06.677Z,9.52
2022-08-14T18:50:31.247Z,9.18
2022-08-14T18:53:07.691Z,9.48
2022-08-14T18:55:36.705Z,9.57
2022-08-14T18:58:27.683Z,9.52
2022-08-14T19:01:00.007Z,9.43
2022-08-14T19:03:39.090Z,9.30
2022-08-14T19:06:09.919Z,9.38
2022-08-14T19:08:47.766Z,9.45
2022-08-14T19:11:51.663Z,10.30
2022-08-14T19:14:46.877Z,9.63
2022-08-14T19:17:41.891Z,10.02
2022-08-14T19:20:09.343Z,9.30
2022-08-14T19:22:40.445Z,10.07
2022-08-14T19:25:09.753Z,9.75
2022-08-14T19:27:39.046Z,9.90
2022-08-14T19:30:19.617Z,11.05
2022-08-14T19:32:51.039Z,10.10
2022-08-14T19:35:22.794Z,10.63
2022-08-14T19:37:54.939Z,10.48
2022-08-14T19:40:29.971Z,10.57
2022-08-14T19:43:00.618Z,10.13
2022-08-14T19:45:30.022Z,10.75
2022-08-14T19:48:01.390Z,10.50
2022-08-14T19:50:40.373Z,10.55
2022-08-14T19:53:16.519Z,11.27
2022-08-14T19:55:59.529Z,10.82
2022-08-14T19:58:54.784Z,10.25
2022-08-14T20:01:38.030Z,10.82
2022-08-14T20:04:46.902Z,10.90
2022-08-14T20:07:07.153Z,10.85
2022-08-14T20:11:07.842Z,10.55
2022-08-14T20:12:35.319Z,10.68
2022-08-14T20:15:15.262Z,10.48
2022-08-14T20:17:52.545Z,10.45
2022-08-14T20:20:31.597Z,11.50
2022-08-14T20:23:10.768Z,10.85
2022-08-14T20:25:45.444Z,10.68
2022-08-14T20:28:32.179Z,10.95
2022-08-14T20:31:18.182Z,10.88
2022-08-14T20:34:24.365Z,10.85
2022-08-14T20:37:04.375Z,10.50
2022-08-14T20:39:34.655Z,10.20
2022-08-14T20:42:30.148Z,10.68
2022-08-14T20:45:24.059Z,10.52
2022-08-14T20:48:07.130Z,10.95
2022-08-14T20:50:34.656Z,10.75
2022-08-14T20:53:25.613Z,11.73
2022-08-14T20:55:55.408Z,11.00
2022-08-14T20:58:43.816Z,10.20
2022-08-14T21:01:13.680Z,10.25
2022-08-14T21:03:56.319Z,10.75
2022-08-14T21:07:24.480Z,10.75
2022-08-14T21:10:03.228Z,10.13
2022-08-14T21:12:33.959Z,10.90
2022-08-14T21:15:00.848Z,11.05
2022-08-14T21:17:29.579Z,11.00
2022-08-14T21:19:56.642Z,11.02
2022-08-14T21:22:23.538Z,11.30
2022-08-14T21:25:01.669Z,11.48
2022-08-14T21:27:46.898Z,10.68
2022-08-14T21:30:20.842Z,10.73
2022-08-14T21:32:58.041Z,11.10
2022-08-14T21:35:25.866Z,10.65
2022-08-14T21:37:53.873Z,11.25
2022-08-14T21:40:41.697Z,10.95
2022-08-14T21:43:18.377Z,11.07
2022-08-14T21:45:53.082Z,11.27
2022-08-14T21:48:21.676Z,11.10
2022-08-14T21:51:00.305Z,11.30
2022-08-14T21:53:58.285Z,11.07
2022-08-14T21:56:37.215Z,11.10
2022-08-14T21:59:08.960Z,11.07
2022-08-14T22:02:01.270Z,10.95
2022-08-14T22:04:33.368Z,10.88
2022-08-14T22:07:05.423Z,10.60
2022-08-14T22:09:36.300Z,10.63
2022-08-14T22:12:08.308Z,10.35
2022-08-14T22:14:43.216Z,10.75
2022-08-14T22:17:16.413Z,10.35
2022-08-14T22:19:54.200Z,11.55
2022-08-14T22:22:23.345Z,10.63
2022-08-14T22:24:54.095Z,10.02
2022-08-14T22:27:29.511Z,10.10
2022-08-14T22:29:58.517Z,10.30
2022-08-14T22:32:55.893Z,10.82
2022-08-14T22:35:13.687Z,10.48
2022-08-14T22:37:44.698Z,10.35
2022-08-14T22:40:46.122Z,10.13
2022-08-14T22:43:07.880Z,9.95
2022-08-14T22:45:36.538Z,10.38
2022-08-14T22:48:10.977Z,9.95
2022-08-14T22:50:53.283Z,10.00
2022-08-14T22:53:21.836Z,10.00
2022-08-14T22:55:51.954Z,9.68
2022-08-14T22:58:31.446Z,9.90
2022-08-14T23:01:01.150Z,9.77
2022-08-14T23:03:31.200Z,9.80
2022-08-14T23:06:02.101Z,9.73
2022-08-14T23:08:58.372Z,10.32
2022-08-14T23:11:15.747Z,9.95
2022-08-14T23:13:43.642Z,9.55
2022-08-14T23:16:20.216Z,9.50
2022-08-14T23:18:54.060Z,9.88
2022-08-14T23:21:24.700Z,9.93
2022-08-14T23:23:55.255Z,10.07
2022-08-14T23:26:48.721Z,9.65
2022-08-14T23:29:12.255Z,9.75
2022-08-14T23:31:40.459Z,9.80
2022-08-14T23:34:11.319Z,9.50
2022-08-14T23:36:52.966Z,9.80
2022-08-14T23:39:24.509Z,10.13
2022-08-14T23:41:56.764Z,9.60
2022-08-14T23:44:32.166Z,9.68
2022-08-14T23:47:12.007Z,9.43
2022-08-14T23:50:03.295Z,9.65
2022-08-14T23:52:50.868Z,9.05
2022-08-14T23:55:31.253Z,9.50
2022-08-14T23:58:00.749Z,9.60
